sensor_id;sensor_type;location;lat;lon;timestamp;temperature;humidity
81161;DHT22;70637;48.514;14.500;2023-12-14T00:01:18;27.90;38.40
81161;DHT22;70637;48.514;14.500;2023-12-14T00:03:44;27.90;38.40
81161;DHT22;70637;48.514;14.500;2023-12-14T00:06:13;27.90;38.40
81161;DHT22;70637;48.514;14.500;2023-12-14T00:08:39;27.90;38.40
81161;DHT22;70637;48.514;14.500;2023-12-14T00:11:05;27.80;38.30
81161;DHT22;70637;48.514;14.500;2023-12-14T00:13:32;27.80;38.40
81161;DHT22;70637;48.514;14.500;2023-12-14T00:15:58;27.80;38.40
81161;DHT22;70637;48.514;14.500;2023-12-14T00:18:23;27.80;38.40
81161;DHT22;70637;48.514;14.500;2023-12-14T00:20:49;27.80;38.40
81161;DHT22;70637;48.514;14.500;2023-12-14T00:23:15;27.80;38.40
81161;DHT22;70637;48.514;14.500;2023-12-14T00:25:40;27.80;38.50
81161;DHT22;70637;48.514;14.500;2023-12-14T00:28:06;27.80;38.50
81161;DHT22;70637;48.514;14.500;2023-12-14T00:30:31;27.80;38.50
81161;DHT22;70637;48.514;14.500;2023-12-14T00:32:58;27.80;38.50
81161;DHT22;70637;48.514;14.500;2023-12-14T00:35:23;27.70;38.50
81161;DHT22;70637;48.514;14.500;2023-12-14T00:37:49;27.70;38.50
81161;DHT22;70637;48.514;14.500;2023-12-14T00:40:15;27.70;39.60
81161;DHT22;70637;48.514;14.500;2023-12-14T00:42:40;27.70;38.60
81161;DHT22;70637;48.514;14.500;2023-12-14T00:45:06;27.70;38.50
81161;DHT22;70637;48.514;14.500;2023-12-14T00:47:32;27.70;38.60
81161;DHT22;70637;48.514;14.500;2023-12-14T00:49:58;27.70;38.60
81161;DHT22;70637;48.514;14.500;2023-12-14T00:52:23;27.60;38.50
81161;DHT22;70637;48.514;14.500;2023-12-14T00:54:49;27.70;38.60
81161;DHT22;70637;48.514;14.500;2023-12-14T00:57:15;27.60;38.60
81161;DHT22;70637;48.514;14.500;2023-12-14T00:59:40;27.70;38.70
81161;DHT22;70637;48.514;14.500;2023-12-14T01:02:06;27.60;38.60
81161;DHT22;70637;48.514;14.500;2023-12-14T01:04:32;27.60;38.60
81161;DHT22;70637;48.514;14.500;2023-12-14T01:06:58;27.60;38.60
81161;DHT22;70637;48.514;14.500;2023-12-14T01:09:23;27.60;38.70
81161;DHT22;70637;48.514;14.500;2023-12-14T01:11:49;27.60;38.70
81161;DHT22;70637;48.514;14.500;2023-12-14T01:14:15;27.60;38.70
81161;DHT22;70637;48.514;14.500;2023-12-14T01:16:40;27.60;38.70
81161;DHT22;70637;48.514;14.500;2023-12-14T01:19:06;27.60;38.80
81161;DHT22;70637;48.514;14.500;2023-12-14T01:21:32;27.60;38.70
81161;DHT22;70637;48.514;14.500;2023-12-14T01:23:58;27.60;38.80
81161;DHT22;70637;48.514;14.500;2023-12-14T01:26:23;27.60;39.30
81161;DHT22;70637;48.514;14.500;2023-12-14T01:28:49;27.50;38.70
81161;DHT22;70637;48.514;14.500;2023-12-14T01:31:14;27.50;38.70
81161;DHT22;70637;48.514;14.500;2023-12-14T01:33:40;27.50;38.80
81161;DHT22;70637;48.514;14.500;2023-12-14T01:36:06;27.60;38.80
81161;DHT22;70637;48.514;14.500;2023-12-14T01:38:32;27.50;38.70
81161;DHT22;70637;48.514;14.500;2023-12-14T01:40:57;27.50;38.70
81161;DHT22;70637;48.514;14.500;2023-12-14T01:43:24;27.50;38.80
81161;DHT22;70637;48.514;14.500;2023-12-14T01:45:50;27.50;38.80
81161;DHT22;70637;48.514;14.500;2023-12-14T01:48:16;27.50;38.80
81161;DHT22;70637;48.514;14.500;2023-12-14T01:50:41;27.50;38.80
81161;DHT22;70637;48.514;14.500;2023-12-14T01:53:07;27.50;38.80
81161;DHT22;70637;48.514;14.500;2023-12-14T01:55:33;27.50;38.80
81161;DHT22;70637;48.514;14.500;2023-12-14T01:57:59;27.50;38.80
81161;DHT22;70637;48.514;14.500;2023-12-14T02:03:06;27.50;38.90
81161;DHT22;70637;48.514;14.500;2023-12-14T02:05:31;27.40;38.80
81161;DHT22;70637;48.514;14.500;2023-12-14T02:07:57;27.40;38.80
81161;DHT22;70637;48.514;14.500;2023-12-14T02:10:23;27.50;38.80
81161;DHT22;70637;48.514;14.500;2023-12-14T02:12:49;27.40;38.80
81161;DHT22;70637;48.514;14.500;2023-12-14T02:15:15;27.40;38.80
81161;DHT22;70637;48.514;14.500;2023-12-14T02:17:40;27.40;38.80
81161;DHT22;70637;48.514;14.500;2023-12-14T02:20:06;27.40;38.80
81161;DHT22;70637;48.514;14.500;2023-12-14T02:25:18;27.40;38.90
81161;DHT22;70637;48.514;14.500;2023-12-14T02:27:45;27.40;38.90
81161;DHT22;70637;48.514;14.500;2023-12-14T02:30:11;27.40;38.90
81161;DHT22;70637;48.514;14.500;2023-12-14T02:32:38;27.40;38.90
81161;DHT22;70637;48.514;14.500;2023-12-14T02:35:05;27.40;38.90
81161;DHT22;70637;48.514;14.500;2023-12-14T02:37:31;27.40;38.90
81161;DHT22;70637;48.514;14.500;2023-12-14T02:39:57;27.40;38.90
81161;DHT22;70637;48.514;14.500;2023-12-14T02:42:23;27.40;38.90
81161;DHT22;70637;48.514;14.500;2023-12-14T02:44:49;27.30;38.90
81161;DHT22;70637;48.514;14.500;2023-12-14T02:47:15;27.40;39.00
81161;DHT22;70637;48.514;14.500;2023-12-14T02:49:41;27.30;38.90
81161;DHT22;70637;48.514;14.500;2023-12-14T02:52:07;27.30;38.90
81161;DHT22;70637;48.514;14.500;2023-12-14T02:54:32;27.40;39.00
81161;DHT22;70637;48.514;14.500;2023-12-14T02:56:58;27.30;39.00
81161;DHT22;70637;48.514;14.500;2023-12-14T02:59:24;27.30;38.90
81161;DHT22;70637;48.514;14.500;2023-12-14T03:01:49;27.30;38.90
81161;DHT22;70637;48.514;14.500;2023-12-14T03:04:15;27.30;39.00
81161;DHT22;70637;48.514;14.500;2023-12-14T03:06:41;27.30;38.90
81161;DHT22;70637;48.514;14.500;2023-12-14T03:09:06;27.30;39.00
81161;DHT22;70637;48.514;14.500;2023-12-14T03:11:32;27.30;39.00
81161;DHT22;70637;48.514;14.500;2023-12-14T03:13:57;27.30;39.00
81161;DHT22;70637;48.514;14.500;2023-12-14T03:16:23;27.30;39.00
81161;DHT22;70637;48.514;14.500;2023-12-14T03:18:49;27.30;39.00
81161;DHT22;70637;48.514;14.500;2023-12-14T03:21:18;27.30;39.00
81161;DHT22;70637;48.514;14.500;2023-12-14T03:23:44;27.30;39.00
81161;DHT22;70637;48.514;14.500;2023-12-14T03:26:10;27.30;39.00
81161;DHT22;70637;48.514;14.500;2023-12-14T03:28:36;27.30;39.00
81161;DHT22;70637;48.514;14.500;2023-12-14T03:31:02;27.30;39.00
81161;DHT22;70637;48.514;14.500;2023-12-14T03:33:28;27.30;39.00
81161;DHT22;70637;48.514;14.500;2023-12-14T03:35:55;27.30;39.00
81161;DHT22;70637;48.514;14.500;2023-12-14T03:38:20;27.30;39.00
81161;DHT22;70637;48.514;14.500;2023-12-14T03:40:46;27.20;39.00
81161;DHT22;70637;48.514;14.500;2023-12-14T03:43:11;27.30;39.10
81161;DHT22;70637;48.514;14.500;2023-12-14T03:45:37;27.20;39.00
81161;DHT22;70637;48.514;14.500;2023-12-14T03:48:03;27.20;39.00
81161;DHT22;70637;48.514;14.500;2023-12-14T03:50:29;27.20;39.00
81161;DHT22;70637;48.514;14.500;2023-12-14T03:52:54;27.20;39.00
81161;DHT22;70637;48.514;14.500;2023-12-14T03:55:20;27.30;39.10
81161;DHT22;70637;48.514;14.500;2023-12-14T03:57:46;27.20;39.00
81161;DHT22;70637;48.514;14.500;2023-12-14T04:00:12;27.20;39.10
81161;DHT22;70637;48.514;14.500;2023-12-14T04:02:39;27.20;39.00
81161;DHT22;70637;48.514;14.500;2023-12-14T04:05:08;27.20;39.10
81161;DHT22;70637;48.514;14.500;2023-12-14T04:07:37;27.20;39.10
81161;DHT22;70637;48.514;14.500;2023-12-14T04:12:33;27.20;39.10
81161;DHT22;70637;48.514;14.500;2023-12-14T04:14:58;27.20;39.10
81161;DHT22;70637;48.514;14.500;2023-12-14T04:17:24;27.20;39.10
81161;DHT22;70637;48.514;14.500;2023-12-14T04:19:50;27.20;39.10
81161;DHT22;70637;48.514;14.500;2023-12-14T04:22:15;27.20;39.10
81161;DHT22;70637;48.514;14.500;2023-12-14T04:24:41;27.20;39.10
81161;DHT22;70637;48.514;14.500;2023-12-14T04:27:07;27.20;39.10
81161;DHT22;70637;48.514;14.500;2023-12-14T04:29:32;27.20;39.10
81161;DHT22;70637;48.514;14.500;2023-12-14T04:31:58;27.20;39.10
81161;DHT22;70637;48.514;14.500;2023-12-14T04:34:23;27.20;39.20
81161;DHT22;70637;48.514;14.500;2023-12-14T04:36:49;27.10;39.10
81161;DHT22;70637;48.514;14.500;2023-12-14T04:39:15;27.20;39.20
81161;DHT22;70637;48.514;14.500;2023-12-14T04:41:42;27.20;39.10
81161;DHT22;70637;48.514;14.500;2023-12-14T04:44:07;27.10;39.10
81161;DHT22;70637;48.514;14.500;2023-12-14T04:46:35;27.20;39.10
81161;DHT22;70637;48.514;14.500;2023-12-14T04:49:01;27.10;39.10
81161;DHT22;70637;48.514;14.500;2023-12-14T04:51:27;27.10;39.10
81161;DHT22;70637;48.514;14.500;2023-12-14T04:53:53;27.10;39.10
81161;DHT22;70637;48.514;14.500;2023-12-14T04:56:19;27.20;39.20
81161;DHT22;70637;48.514;14.500;2023-12-14T04:58:44;27.10;39.10
81161;DHT22;70637;48.514;14.500;2023-12-14T05:01:11;27.10;39.20
81161;DHT22;70637;48.514;14.500;2023-12-14T05:03:37;27.20;39.30
81161;DHT22;70637;48.514;14.500;2023-12-14T05:06:03;27.10;39.20
81161;DHT22;70637;48.514;14.500;2023-12-14T05:08:28;27.10;39.20
81161;DHT22;70637;48.514;14.500;2023-12-14T05:10:54;27.20;39.30
81161;DHT22;70637;48.514;14.500;2023-12-14T05:13:20;27.10;39.20
81161;DHT22;70637;48.514;14.500;2023-12-14T05:15:45;27.10;39.20
81161;DHT22;70637;48.514;14.500;2023-12-14T05:18:11;27.10;39.20
81161;DHT22;70637;48.514;14.500;2023-12-14T05:20:36;27.10;39.20
81161;DHT22;70637;48.514;14.500;2023-12-14T05:23:02;27.10;39.20
81161;DHT22;70637;48.514;14.500;2023-12-14T05:25:28;27.10;39.20
81161;DHT22;70637;48.514;14.500;2023-12-14T05:27:53;27.10;39.10
81161;DHT22;70637;48.514;14.500;2023-12-14T05:30:19;27.10;39.10
81161;DHT22;70637;48.514;14.500;2023-12-14T05:32:45;27.10;39.20
81161;DHT22;70637;48.514;14.500;2023-12-14T05:35:11;27.10;39.10
81161;DHT22;70637;48.514;14.500;2023-12-14T05:37:38;27.10;39.20
81161;DHT22;70637;48.514;14.500;2023-12-14T05:40:05;27.10;39.10
81161;DHT22;70637;48.514;14.500;2023-12-14T05:42:30;27.10;39.20
81161;DHT22;70637;48.514;14.500;2023-12-14T05:44:56;27.10;39.10
81161;DHT22;70637;48.514;14.500;2023-12-14T05:47:23;27.10;39.20
81161;DHT22;70637;48.514;14.500;2023-12-14T05:49:50;27.10;39.10
81161;DHT22;70637;48.514;14.500;2023-12-14T05:52:16;27.10;39.20
81161;DHT22;70637;48.514;14.500;2023-12-14T05:54:42;27.10;39.10
81161;DHT22;70637;48.514;14.500;2023-12-14T05:57:07;27.10;39.10
81161;DHT22;70637;48.514;14.500;2023-12-14T05:59:33;27.10;39.10
81161;DHT22;70637;48.514;14.500;2023-12-14T06:01:59;27.10;39.10
81161;DHT22;70637;48.514;14.500;2023-12-14T06:04:26;27.10;39.10
81161;DHT22;70637;48.514;14.500;2023-12-14T06:06:52;27.10;39.10
81161;DHT22;70637;48.514;14.500;2023-12-14T06:09:18;27.10;39.10
81161;DHT22;70637;48.514;14.500;2023-12-14T06:11:51;27.10;39.10
81161;DHT22;70637;48.514;14.500;2023-12-14T06:14:17;27.10;39.10
81161;DHT22;70637;48.514;14.500;2023-12-14T06:16:42;27.10;39.10
81161;DHT22;70637;48.514;14.500;2023-12-14T06:19:08;27.10;39.10
81161;DHT22;70637;48.514;14.500;2023-12-14T06:21:34;27.10;39.10
81161;DHT22;70637;48.514;14.500;2023-12-14T06:23:59;27.10;39.10
81161;DHT22;70637;48.514;14.500;2023-12-14T06:26:26;27.10;39.10
81161;DHT22;70637;48.514;14.500;2023-12-14T06:28:51;27.10;39.10
81161;DHT22;70637;48.514;14.500;2023-12-14T06:31:18;27.10;39.10
81161;DHT22;70637;48.514;14.500;2023-12-14T06:33:47;27.10;39.10
81161;DHT22;70637;48.514;14.500;2023-12-14T06:36:15;27.10;39.10
81161;DHT22;70637;48.514;14.500;2023-12-14T06:38:40;27.10;39.10
81161;DHT22;70637;48.514;14.500;2023-12-14T06:41:06;27.10;39.10
81161;DHT22;70637;48.514;14.500;2023-12-14T06:43:32;27.10;39.00
81161;DHT22;70637;48.514;14.500;2023-12-14T06:45:58;27.10;40.20
81161;DHT22;70637;48.514;14.500;2023-12-14T06:48:24;27.10;39.10
81161;DHT22;70637;48.514;14.500;2023-12-14T06:50:49;27.10;39.10
81161;DHT22;70637;48.514;14.500;2023-12-14T06:53:15;27.10;39.10
81161;DHT22;70637;48.514;14.500;2023-12-14T06:55:41;27.10;39.10
81161;DHT22;70637;48.514;14.500;2023-12-14T06:58:07;27.10;39.10
81161;DHT22;70637;48.514;14.500;2023-12-14T07:00:37;27.10;39.10
81161;DHT22;70637;48.514;14.500;2023-12-14T07:03:03;27.10;39.10
81161;DHT22;70637;48.514;14.500;2023-12-14T07:05:29;27.10;39.00
81161;DHT22;70637;48.514;14.500;2023-12-14T07:07:55;27.10;39.00
81161;DHT22;70637;48.514;14.500;2023-12-14T07:10:22;27.10;39.00
81161;DHT22;70637;48.514;14.500;2023-12-14T07:12:47;27.10;39.00
81161;DHT22;70637;48.514;14.500;2023-12-14T07:15:13;27.10;39.00
81161;DHT22;70637;48.514;14.500;2023-12-14T07:17:40;27.10;39.00
81161;DHT22;70637;48.514;14.500;2023-12-14T07:20:06;27.10;39.10
81161;DHT22;70637;48.514;14.500;2023-12-14T07:22:32;27.10;39.00
81161;DHT22;70637;48.514;14.500;2023-12-14T07:24:58;27.10;39.10
81161;DHT22;70637;48.514;14.500;2023-12-14T07:27:23;27.10;39.00
81161;DHT22;70637;48.514;14.500;2023-12-14T07:29:49;27.10;39.10
81161;DHT22;70637;48.514;14.500;2023-12-14T07:32:15;27.10;39.00
81161;DHT22;70637;48.514;14.500;2023-12-14T07:34:41;27.10;39.00
81161;DHT22;70637;48.514;14.500;2023-12-14T07:37:06;27.10;39.00
81161;DHT22;70637;48.514;14.500;2023-12-14T07:39:32;27.10;39.00
81161;DHT22;70637;48.514;14.500;2023-12-14T07:41:57;27.10;39.00
81161;DHT22;70637;48.514;14.500;2023-12-14T07:44:23;27.10;39.00
81161;DHT22;70637;48.514;14.500;2023-12-14T07:46:51;27.10;39.10
81161;DHT22;70637;48.514;14.500;2023-12-14T07:49:17;27.10;39.00
81161;DHT22;70637;48.514;14.500;2023-12-14T07:51:47;27.10;39.00
81161;DHT22;70637;48.514;14.500;2023-12-14T07:54:14;27.10;39.10
81161;DHT22;70637;48.514;14.500;2023-12-14T07:56:40;27.10;39.10
81161;DHT22;70637;48.514;14.500;2023-12-14T07:59:06;27.10;39.00
81161;DHT22;70637;48.514;14.500;2023-12-14T08:01:33;27.10;39.10
81161;DHT22;70637;48.514;14.500;2023-12-14T08:03:59;27.10;39.00
81161;DHT22;70637;48.514;14.500;2023-12-14T08:06:25;27.10;39.00
81161;DHT22;70637;48.514;14.500;2023-12-14T08:08:51;27.10;39.10
81161;DHT22;70637;48.514;14.500;2023-12-14T08:11:17;27.10;39.00
81161;DHT22;70637;48.514;14.500;2023-12-14T08:13:42;27.10;39.10
81161;DHT22;70637;48.514;14.500;2023-12-14T08:16:08;27.10;39.10
81161;DHT22;70637;48.514;14.500;2023-12-14T08:18:34;27.10;39.00
81161;DHT22;70637;48.514;14.500;2023-12-14T08:20:59;27.10;39.00
81161;DHT22;70637;48.514;14.500;2023-12-14T08:23:25;27.10;39.00
81161;DHT22;70637;48.514;14.500;2023-12-14T08:25:56;27.10;39.00
81161;DHT22;70637;48.514;14.500;2023-12-14T08:28:25;27.10;38.90
81161;DHT22;70637;48.514;14.500;2023-12-14T08:30:51;27.10;38.80
81161;DHT22;70637;48.514;14.500;2023-12-14T08:33:17;27.10;38.80
81161;DHT22;70637;48.514;14.500;2023-12-14T08:35:43;27.10;38.80
81161;DHT22;70637;48.514;14.500;2023-12-14T08:38:09;27.10;38.60
81161;DHT22;70637;48.514;14.500;2023-12-14T08:40:36;27.10;38.50
81161;DHT22;70637;48.514;14.500;2023-12-14T08:43:02;27.10;38.50
81161;DHT22;70637;48.514;14.500;2023-12-14T08:45:28;27.10;38.50
81161;DHT22;70637;48.514;14.500;2023-12-14T08:47:54;27.10;38.50
81161;DHT22;70637;48.514;14.500;2023-12-14T08:50:20;27.10;38.50
81161;DHT22;70637;48.514;14.500;2023-12-14T08:52:46;27.10;38.50
81161;DHT22;70637;48.514;14.500;2023-12-14T08:55:12;27.10;38.40
81161;DHT22;70637;48.514;14.500;2023-12-14T08:57:40;27.00;38.50
81161;DHT22;70637;48.514;14.500;2023-12-14T09:00:06;27.10;38.50
81161;DHT22;70637;48.514;14.500;2023-12-14T09:02:32;27.10;38.50
81161;DHT22;70637;48.514;14.500;2023-12-14T09:04:58;27.10;38.60
81161;DHT22;70637;48.514;14.500;2023-12-14T09:07:24;27.10;38.60
81161;DHT22;70637;48.514;14.500;2023-12-14T09:09:50;27.00;38.50
81161;DHT22;70637;48.514;14.500;2023-12-14T09:12:15;27.10;38.60
81161;DHT22;70637;48.514;14.500;2023-12-14T09:14:41;27.10;38.60
81161;DHT22;70637;48.514;14.500;2023-12-14T09:17:07;27.10;38.70
81161;DHT22;70637;48.514;14.500;2023-12-14T09:19:33;27.10;38.60
81161;DHT22;70637;48.514;14.500;2023-12-14T09:21:59;27.10;38.60
81161;DHT22;70637;48.514;14.500;2023-12-14T09:24:25;27.10;38.70
81161;DHT22;70637;48.514;14.500;2023-12-14T09:26:50;27.00;38.60
81161;DHT22;70637;48.514;14.500;2023-12-14T09:29:16;27.10;38.70
81161;DHT22;70637;48.514;14.500;2023-12-14T09:31:43;27.10;38.70
81161;DHT22;70637;48.514;14.500;2023-12-14T09:34:10;27.10;38.70
81161;DHT22;70637;48.514;14.500;2023-12-14T09:36:36;27.10;38.80
81161;DHT22;70637;48.514;14.500;2023-12-14T09:39:02;27.10;38.70
81161;DHT22;70637;48.514;14.500;2023-12-14T09:41:28;27.10;39.80
81161;DHT22;70637;48.514;14.500;2023-12-14T09:43:55;27.10;38.80
81161;DHT22;70637;48.514;14.500;2023-12-14T09:46:21;27.10;38.70
81161;DHT22;70637;48.514;14.500;2023-12-14T09:48:48;27.10;38.80
81161;DHT22;70637;48.514;14.500;2023-12-14T09:51:16;27.10;38.80
81161;DHT22;70637;48.514;14.500;2023-12-14T09:53:42;27.10;38.80
81161;DHT22;70637;48.514;14.500;2023-12-14T09:56:08;27.10;38.80
81161;DHT22;70637;48.514;14.500;2023-12-14T09:58:34;27.00;38.80
81161;DHT22;70637;48.514;14.500;2023-12-14T10:01:00;27.00;38.70
81161;DHT22;70637;48.514;14.500;2023-12-14T10:03:30;27.10;38.80
81161;DHT22;70637;48.514;14.500;2023-12-14T10:05:58;27.00;38.80
81161;DHT22;70637;48.514;14.500;2023-12-14T10:08:24;27.00;38.70
81161;DHT22;70637;48.514;14.500;2023-12-14T10:10:55;27.10;38.80
81161;DHT22;70637;48.514;14.500;2023-12-14T10:13:36;27.10;38.80
81161;DHT22;70637;48.514;14.500;2023-12-14T10:16:02;27.10;38.80
81161;DHT22;70637;48.514;14.500;2023-12-14T10:18:28;27.00;38.80
81161;DHT22;70637;48.514;14.500;2023-12-14T10:20:54;27.10;38.80
81161;DHT22;70637;48.514;14.500;2023-12-14T10:23:21;27.10;38.80
81161;DHT22;70637;48.514;14.500;2023-12-14T10:25:47;27.10;38.80
81161;DHT22;70637;48.514;14.500;2023-12-14T10:28:15;27.10;38.80
81161;DHT22;70637;48.514;14.500;2023-12-14T10:30:42;27.00;38.80
81161;DHT22;70637;48.514;14.500;2023-12-14T10:33:07;27.00;38.80
81161;DHT22;70637;48.514;14.500;2023-12-14T10:35:33;27.00;38.80
81161;DHT22;70637;48.514;14.500;2023-12-14T10:38:03;27.00;38.80
81161;DHT22;70637;48.514;14.500;2023-12-14T10:40:30;27.10;38.90
81161;DHT22;70637;48.514;14.500;2023-12-14T10:42:58;27.00;38.80
81161;DHT22;70637;48.514;14.500;2023-12-14T10:45:32;27.00;38.80
81161;DHT22;70637;48.514;14.500;2023-12-14T10:47:59;27.00;38.80
81161;DHT22;70637;48.514;14.500;2023-12-14T10:50:29;27.00;38.80
81161;DHT22;70637;48.514;14.500;2023-12-14T10:52:56;27.00;38.80
81161;DHT22;70637;48.514;14.500;2023-12-14T10:55:36;27.00;38.90
81161;DHT22;70637;48.514;14.500;2023-12-14T10:58:03;27.00;38.80
81161;DHT22;70637;48.514;14.500;2023-12-14T11:00:31;27.00;38.80
81161;DHT22;70637;48.514;14.500;2023-12-14T11:02:58;27.00;38.80
81161;DHT22;70637;48.514;14.500;2023-12-14T11:05:27;27.00;38.90
81161;DHT22;70637;48.514;14.500;2023-12-14T11:07:56;27.00;38.80
81161;DHT22;70637;48.514;14.500;2023-12-14T11:10:52;27.00;38.90
81161;DHT22;70637;48.514;14.500;2023-12-14T11:13:21;27.00;38.90
81161;DHT22;70637;48.514;14.500;2023-12-14T11:15:52;27.00;38.80
81161;DHT22;70637;48.514;14.500;2023-12-14T11:23:15;27.00;38.90
81161;DHT22;70637;48.514;14.500;2023-12-14T11:25:48;27.00;38.90
81161;DHT22;70637;48.514;14.500;2023-12-14T11:28:15;27.00;38.90
81161;DHT22;70637;48.514;14.500;2023-12-14T11:30:43;27.00;38.90
81161;DHT22;70637;48.514;14.500;2023-12-14T11:33:11;27.00;38.90
81161;DHT22;70637;48.514;14.500;2023-12-14T11:35:37;27.00;38.90
81161;DHT22;70637;48.514;14.500;2023-12-14T11:38:03;27.00;38.90
81161;DHT22;70637;48.514;14.500;2023-12-14T11:40:36;27.00;38.90
81161;DHT22;70637;48.514;14.500;2023-12-14T11:43:02;27.00;38.90
81161;DHT22;70637;48.514;14.500;2023-12-14T11:45:36;27.00;38.90
81161;DHT22;70637;48.514;14.500;2023-12-14T11:48:09;27.00;38.90
81161;DHT22;70637;48.514;14.500;2023-12-14T11:50:40;27.00;38.90
81161;DHT22;70637;48.514;14.500;2023-12-14T11:53:07;27.00;38.90
81161;DHT22;70637;48.514;14.500;2023-12-14T11:55:35;27.00;38.90
81161;DHT22;70637;48.514;14.500;2023-12-14T11:58:01;27.00;38.90
81161;DHT22;70637;48.514;14.500;2023-12-14T12:00:29;27.00;38.90
81161;DHT22;70637;48.514;14.500;2023-12-14T12:03:12;27.00;39.00
81161;DHT22;70637;48.514;14.500;2023-12-14T12:05:39;27.00;38.90
81161;DHT22;70637;48.514;14.500;2023-12-14T12:08:06;27.00;39.00
81161;DHT22;70637;48.514;14.500;2023-12-14T12:10:32;27.00;38.90
81161;DHT22;70637;48.514;14.500;2023-12-14T12:13:02;27.00;39.00
81161;DHT22;70637;48.514;14.500;2023-12-14T12:15:28;27.00;38.90
81161;DHT22;70637;48.514;14.500;2023-12-14T12:17:54;27.00;39.00
81161;DHT22;70637;48.514;14.500;2023-12-14T12:20:19;27.00;39.00
81161;DHT22;70637;48.514;14.500;2023-12-14T12:22:45;27.00;39.00
81161;DHT22;70637;48.514;14.500;2023-12-14T12:25:11;27.00;39.00
81161;DHT22;70637;48.514;14.500;2023-12-14T12:27:37;27.00;39.00
81161;DHT22;70637;48.514;14.500;2023-12-14T12:30:02;27.00;39.00
81161;DHT22;70637;48.514;14.500;2023-12-14T12:32:29;27.00;39.00
81161;DHT22;70637;48.514;14.500;2023-12-14T12:34:55;27.00;39.00
81161;DHT22;70637;48.514;14.500;2023-12-14T12:37:20;27.00;39.00
81161;DHT22;70637;48.514;14.500;2023-12-14T12:39:46;27.00;39.00
81161;DHT22;70637;48.514;14.500;2023-12-14T12:42:12;27.00;39.00
81161;DHT22;70637;48.514;14.500;2023-12-14T12:44:38;27.00;39.00
81161;DHT22;70637;48.514;14.500;2023-12-14T12:47:03;27.00;39.00
81161;DHT22;70637;48.514;14.500;2023-12-14T12:49:30;27.00;39.00
81161;DHT22;70637;48.514;14.500;2023-12-14T12:51:56;27.00;39.00
81161;DHT22;70637;48.514;14.500;2023-12-14T12:54:21;27.00;39.00
81161;DHT22;70637;48.514;14.500;2023-12-14T12:56:47;27.00;39.00
81161;DHT22;70637;48.514;14.500;2023-12-14T12:59:13;27.00;39.00
81161;DHT22;70637;48.514;14.500;2023-12-14T13:01:40;27.00;39.00
81161;DHT22;70637;48.514;14.500;2023-12-14T13:04:20;27.00;39.00
81161;DHT22;70637;48.514;14.500;2023-12-14T13:06:50;27.00;39.00
81161;DHT22;70637;48.514;14.500;2023-12-14T13:09:16;27.00;39.00
81161;DHT22;70637;48.514;14.500;2023-12-14T13:11:45;27.00;39.00
81161;DHT22;70637;48.514;14.500;2023-12-14T13:14:11;27.00;39.00
81161;DHT22;70637;48.514;14.500;2023-12-14T13:16:38;27.00;39.10
81161;DHT22;70637;48.514;14.500;2023-12-14T13:19:04;27.00;39.00
81161;DHT22;70637;48.514;14.500;2023-12-14T13:21:32;27.00;39.00
81161;DHT22;70637;48.514;14.500;2023-12-14T13:23:59;27.00;39.00
81161;DHT22;70637;48.514;14.500;2023-12-14T13:26:25;27.00;39.00
81161;DHT22;70637;48.514;14.500;2023-12-14T13:28:54;27.00;39.00
81161;DHT22;70637;48.514;14.500;2023-12-14T13:31:20;27.00;39.10
81161;DHT22;70637;48.514;14.500;2023-12-14T13:33:46;27.00;39.10
81161;DHT22;70637;48.514;14.500;2023-12-14T13:36:13;27.00;39.10
81161;DHT22;70637;48.514;14.500;2023-12-14T13:38:40;27.00;39.10
81161;DHT22;70637;48.514;14.500;2023-12-14T13:41:07;27.00;39.10
81161;DHT22;70637;48.514;14.500;2023-12-14T13:43:32;27.00;39.10
81161;DHT22;70637;48.514;14.500;2023-12-14T13:45:58;27.00;39.10
81161;DHT22;70637;48.514;14.500;2023-12-14T13:48:24;27.00;39.10
81161;DHT22;70637;48.514;14.500;2023-12-14T13:50:50;27.00;39.10
81161;DHT22;70637;48.514;14.500;2023-12-14T13:53:16;27.00;39.10
81161;DHT22;70637;48.514;14.500;2023-12-14T13:55:42;27.00;39.10
81161;DHT22;70637;48.514;14.500;2023-12-14T13:58:08;27.00;39.10
81161;DHT22;70637;48.514;14.500;2023-12-14T14:00:33;27.00;39.10
81161;DHT22;70637;48.514;14.500;2023-12-14T14:03:00;27.00;39.00
81161;DHT22;70637;48.514;14.500;2023-12-14T14:05:27;27.00;39.10
81161;DHT22;70637;48.514;14.500;2023-12-14T14:07:52;27.00;39.10
81161;DHT22;70637;48.514;14.500;2023-12-14T14:10:19;27.00;39.10
81161;DHT22;70637;48.514;14.500;2023-12-14T14:12:45;27.00;39.10
81161;DHT22;70637;48.514;14.500;2023-12-14T14:15:12;27.00;39.10
81161;DHT22;70637;48.514;14.500;2023-12-14T14:17:38;27.00;39.10
81161;DHT22;70637;48.514;14.500;2023-12-14T14:20:04;27.00;39.10
81161;DHT22;70637;48.514;14.500;2023-12-14T14:22:31;27.00;39.00
81161;DHT22;70637;48.514;14.500;2023-12-14T14:24:57;27.00;39.10
81161;DHT22;70637;48.514;14.500;2023-12-14T14:27:23;27.00;39.20
81161;DHT22;70637;48.514;14.500;2023-12-14T14:29:49;27.00;39.10
81161;DHT22;70637;48.514;14.500;2023-12-14T14:32:15;27.00;39.10
81161;DHT22;70637;48.514;14.500;2023-12-14T14:34:42;27.00;39.10
81161;DHT22;70637;48.514;14.500;2023-12-14T14:37:08;27.00;39.10
81161;DHT22;70637;48.514;14.500;2023-12-14T14:39:34;27.00;39.10
81161;DHT22;70637;48.514;14.500;2023-12-14T14:42:00;27.00;39.10
81161;DHT22;70637;48.514;14.500;2023-12-14T14:44:26;27.00;39.10
81161;DHT22;70637;48.514;14.500;2023-12-14T14:46:51;27.00;39.10
81161;DHT22;70637;48.514;14.500;2023-12-14T14:49:18;27.00;39.10
81161;DHT22;70637;48.514;14.500;2023-12-14T14:51:43;27.00;39.10
81161;DHT22;70637;48.514;14.500;2023-12-14T14:54:09;27.00;39.10
81161;DHT22;70637;48.514;14.500;2023-12-14T14:56:35;27.00;39.10
81161;DHT22;70637;48.514;14.500;2023-12-14T14:59:01;27.00;39.10
81161;DHT22;70637;48.514;14.500;2023-12-14T15:01:26;27.00;39.10
81161;DHT22;70637;48.514;14.500;2023-12-14T15:03:52;27.00;39.10
81161;DHT22;70637;48.514;14.500;2023-12-14T15:06:17;27.00;39.10
81161;DHT22;70637;48.514;14.500;2023-12-14T15:08:45;27.00;39.10
81161;DHT22;70637;48.514;14.500;2023-12-14T15:11:10;27.00;39.10
81161;DHT22;70637;48.514;14.500;2023-12-14T15:13:37;27.00;39.10
81161;DHT22;70637;48.514;14.500;2023-12-14T15:16:03;27.00;39.10
81161;DHT22;70637;48.514;14.500;2023-12-14T15:18:28;27.00;39.10
81161;DHT22;70637;48.514;14.500;2023-12-14T15:20:54;27.00;39.10
81161;DHT22;70637;48.514;14.500;2023-12-14T15:23:19;27.00;39.10